createdAt,value
2023-02-28T00:01:33.596Z,98.64
2023-02-28T00:04:00.611Z,100.00
2023-02-28T00:06:27.713Z,100.00
2023-02-28T00:08:54.777Z,100.00
2023-02-28T00:11:22.554Z,100.00
2023-02-28T00:13:49.589Z,100.00
2023-02-28T00:16:22.898Z,100.00
2023-02-28T00:18:50.593Z,99.60
2023-02-28T00:21:19.053Z,99.04
2023-02-28T00:23:46.094Z,98.69
2023-02-28T00:26:13.127Z,98.03
2023-02-28T00:28:43.436Z,97.72
2023-02-28T00:31:10.475Z,98.78
2023-02-28T00:33:37.468Z,97.38
2023-02-28T00:36:11.007Z,97.90
2023-02-28T00:38:39.834Z,97.38
2023-02-28T00:41:08.092Z,96.62
2023-02-28T00:43:37.725Z,97.35
2023-02-28T00:46:05.279Z,96.60
2023-02-28T00:48:32.892Z,96.47
2023-02-28T00:50:59.869Z,96.19
2023-02-28T00:53:26.859Z,96.78
2023-02-28T00:55:53.863Z,95.93
2023-02-28T00:58:20.965Z,95.30
2023-02-28T01:00:50.136Z,95.59
2023-02-28T01:03:21.698Z,96.32
2023-02-28T01:05:48.726Z,96.66
2023-02-28T01:08:17.448Z,97.71
2023-02-28T01:10:44.479Z,97.56
2023-02-28T01:13:13.565Z,97.30
2023-02-28T01:15:46.930Z,97.13
2023-02-28T01:18:13.923Z,99.23
2023-02-28T01:20:41.337Z,100.00
2023-02-28T01:23:09.197Z,100.00
2023-02-28T01:25:37.387Z,100.00
2023-02-28T01:28:06.704Z,100.00
2023-02-28T01:30:35.069Z,100.00
2023-02-28T01:33:02.310Z,100.00
2023-02-28T01:35:29.284Z,100.00
2023-02-28T01:37:58.408Z,100.00
2023-02-28T01:40:28.342Z,100.00
2023-02-28T01:42:56.026Z,100.00
2023-02-28T01:45:32.372Z,100.00
2023-02-28T01:48:06.850Z,100.00
2023-02-28T01:50:40.653Z,100.00
2023-02-28T01:53:12.882Z,100.00
2023-02-28T01:55:43.766Z,100.00
2023-02-28T01:58:10.753Z,100.00
2023-02-28T02:00:39.810Z,100.00
2023-02-28T02:03:12.373Z,100.00
2023-02-28T02:05:41.350Z,100.00
2023-02-28T02:08:16.447Z,100.00
2023-02-28T02:10:52.194Z,100.00
2023-02-28T02:13:30.983Z,100.00
2023-02-28T02:16:39.541Z,100.00
2023-02-28T02:19:24.195Z,100.00
2023-02-28T02:22:28.158Z,100.00
2023-02-28T02:25:41.012Z,100.00
2023-02-28T02:28:55.729Z,100.00
2023-02-28T02:31:56.863Z,100.00
2023-02-28T02:35:07.324Z,100.00
2023-02-28T02:37:51.726Z,100.00
2023-02-28T02:40:23.554Z,100.00
2023-02-28T02:43:19.223Z,100.00
2023-02-28T02:45:57.067Z,100.00
2023-02-28T02:48:30.193Z,100.00
2023-02-28T02:51:02.819Z,100.00
2023-02-28T02:53:36.158Z,100.00
2023-02-28T02:56:04.852Z,100.00
2023-02-28T02:58:42.986Z,100.00
2023-02-28T03:01:18.394Z,100.00
2023-02-28T03:03:47.537Z,100.00
2023-02-28T03:06:16.263Z,100.00
2023-02-28T03:08:43.192Z,100.00
2023-02-28T03:11:15.906Z,100.00
2023-02-28T03:13:55.674Z,100.00
2023-02-28T03:17:19.332Z,100.00
2023-02-28T03:20:09.143Z,100.00
2023-02-28T03:22:44.443Z,100.00
2023-02-28T03:25:19.990Z,100.00
2023-02-28T03:28:01.991Z,100.00
2023-02-28T03:30:54.847Z,100.00
2023-02-28T03:33:29.337Z,100.00
2023-02-28T03:36:02.821Z,100.00
2023-02-28T03:38:42.464Z,100.00
2023-02-28T03:41:28.057Z,100.00
2023-02-28T03:44:00.795Z,100.00
2023-02-28T03:46:33.154Z,100.00
2023-02-28T03:49:33.471Z,100.00
2023-02-28T03:52:03.704Z,100.00
2023-02-28T03:54:36.693Z,100.00
2023-02-28T03:57:13.457Z,100.00
2023-02-28T03:59:58.631Z,100.00
2023-02-28T04:02:25.620Z,100.00
2023-02-28T04:04:52.634Z,100.00
2023-02-28T04:07:19.593Z,100.00
2023-02-28T04:09:46.573Z,100.00
2023-02-28T04:12:13.607Z,100.00
2023-02-28T04:14:40.738Z,100.00
2023-02-28T04:17:08.223Z,100.00
2023-02-28T04:19:35.125Z,100.00
2023-02-28T04:22:02.184Z,100.00
2023-02-28T04:24:29.584Z,100.00
2023-02-28T04:26:58.868Z,100.00
2023-02-28T04:29:35.520Z,100.00
2023-02-28T04:32:03.892Z,100.00
2023-02-28T04:34:32.956Z,100.00
2023-02-28T04:37:17.014Z,100.00
2023-02-28T04:39:44.691Z,100.00
2023-02-28T04:42:13.341Z,100.00
2023-02-28T04:44:40.282Z,100.00
2023-02-28T04:47:07.408Z,100.00
2023-02-28T04:49:34.305Z,100.00
2023-02-28T04:52:01.273Z,100.00
2023-02-28T04:54:29.255Z,100.00
2023-02-28T04:56:56.195Z,100.00
2023-02-28T04:59:23.128Z,100.00
2023-02-28T05:01:50.609Z,100.00
2023-02-28T05:04:17.571Z,100.00
2023-02-28T05:06:44.590Z,100.00
2023-02-28T05:09:14.829Z,100.00
2023-02-28T05:11:42.404Z,100.00
2023-02-28T05:14:15.034Z,100.00
2023-02-28T05:16:42.423Z,100.00
2023-02-28T05:19:09.746Z,100.00
2023-02-28T05:21:42.696Z,100.00
2023-02-28T05:24:13.400Z,100.00
2023-02-28T05:26:44.002Z,100.00
2023-02-28T05:29:11.501Z,100.00
2023-02-28T05:31:39.627Z,100.00
2023-02-28T05:34:06.898Z,100.00
2023-02-28T05:36:34.373Z,100.00
2023-02-28T05:39:01.446Z,100.00
2023-02-28T05:41:28.893Z,100.00
2023-02-28T05:43:56.245Z,100.00
2023-02-28T05:46:23.388Z,100.00
2023-02-28T05:48:50.898Z,100.00
2023-02-28T05:51:18.810Z,100.00
2023-02-28T05:53:45.898Z,100.00
2023-02-28T05:56:12.871Z,100.00
2023-02-28T05:58:39.798Z,100.00
2023-02-28T06:01:33.841Z,100.00
2023-02-28T06:04:02.724Z,100.00
2023-02-28T06:06:30.618Z,100.00
2023-02-28T06:08:58.201Z,100.00
2023-02-28T06:11:28.491Z,100.00
2023-02-28T06:13:57.981Z,100.00
2023-02-28T06:16:26.310Z,100.00
2023-02-28T06:18:53.955Z,100.00
2023-02-28T06:21:20.853Z,100.00
2023-02-28T06:23:47.805Z,100.00
2023-02-28T06:26:14.946Z,100.00
2023-02-28T06:28:42.212Z,100.00
2023-02-28T06:31:12.212Z,100.00
2023-02-28T06:33:40.715Z,100.00
2023-02-28T06:36:08.974Z,100.00
2023-02-28T06:38:36.573Z,100.00
2023-02-28T06:41:04.114Z,100.00
2023-02-28T06:43:36.737Z,100.00
2023-02-28T06:46:07.847Z,100.00
2023-02-28T06:48:36.107Z,100.00
2023-02-28T06:51:21.388Z,100.00
2023-02-28T06:53:48.361Z,100.00
2023-02-28T06:56:17.075Z,100.00
2023-02-28T06:58:49.633Z,100.00
2023-02-28T07:01:17.199Z,100.00
2023-02-28T07:03:44.306Z,100.00
2023-02-28T07:06:11.780Z,100.00
2023-02-28T07:08:41.121Z,100.00
2023-02-28T07:11:08.125Z,100.00
2023-02-28T07:13:34.983Z,100.00
2023-02-28T07:16:06.042Z,100.00
2023-02-28T07:18:33.533Z,100.00
2023-02-28T07:21:04.673Z,100.00
2023-02-28T07:23:31.873Z,100.00
2023-02-28T07:25:58.793Z,100.00
2023-02-28T07:28:26.344Z,100.00
2023-02-28T07:30:53.386Z,100.00
2023-02-28T07:33:20.339Z,100.00
2023-02-28T07:35:47.447Z,100.00
2023-02-28T07:38:14.945Z,100.00
2023-02-28T07:40:41.963Z,100.00
2023-02-28T07:43:09.083Z,100.00
2023-02-28T07:45:36.076Z,100.00
2023-02-28T07:48:03.486Z,100.00
2023-02-28T07:50:31.786Z,100.00
2023-02-28T07:53:00.193Z,100.00
2023-02-28T07:55:27.426Z,100.00
2023-02-28T07:57:54.719Z,100.00
2023-02-28T08:00:22.639Z,100.00
2023-02-28T08:02:49.834Z,100.00
2023-02-28T08:05:17.058Z,100.00
2023-02-28T08:07:44.042Z,100.00
2023-02-28T08:10:11.329Z,100.00
2023-02-28T08:12:38.252Z,100.00
2023-02-28T08:15:05.805Z,100.00
2023-02-28T08:17:35.097Z,100.00
2023-02-28T08:20:02.409Z,100.00
2023-02-28T08:22:29.795Z,100.00
2023-02-28T08:24:56.720Z,100.00
2023-02-28T08:27:23.658Z,100.00
2023-02-28T08:29:50.683Z,100.00
2023-02-28T08:32:29.015Z,100.00
2023-02-28T08:34:57.349Z,100.00
2023-02-28T08:37:24.597Z,100.00
2023-02-28T08:39:53.972Z,100.00
2023-02-28T08:42:22.981Z,100.00
2023-02-28T08:44:49.952Z,100.00
2023-02-28T08:47:17.155Z,100.00
2023-02-28T08:49:44.132Z,100.00
2023-02-28T08:52:11.099Z,100.00
2023-02-28T08:54:38.118Z,100.00
2023-02-28T08:57:05.101Z,100.00
2023-02-28T08:59:32.091Z,100.00
2023-02-28T09:01:59.148Z,100.00
2023-02-28T09:04:26.244Z,100.00
2023-02-28T09:06:53.330Z,100.00
2023-02-28T09:09:20.271Z,100.00
2023-02-28T09:11:47.242Z,100.00
2023-02-28T09:14:14.208Z,100.00
2023-02-28T09:16:41.198Z,100.00
2023-02-28T09:19:12.011Z,100.00
2023-02-28T09:21:39.065Z,100.00
2023-02-28T09:24:06.500Z,100.00
2023-02-28T09:26:39.101Z,100.00
2023-02-28T09:29:15.526Z,80.78
2023-02-28T09:31:42.483Z,79.50
2023-02-28T09:34:09.790Z,79.90
2023-02-28T09:36:45.115Z,78.33
2023-02-28T09:39:16.279Z,78.38
2023-02-28T09:41:52.394Z,78.08
2023-02-28T09:44:33.574Z,76.76
2023-02-28T09:47:11.269Z,74.72
2023-02-28T09:49:46.753Z,75.75
2023-02-28T09:52:20.849Z,75.25
2023-02-28T09:54:48.341Z,75.69
2023-02-28T09:57:33.279Z,73.91
2023-02-28T10:00:23.288Z,73.28
2023-02-28T10:03:17.427Z,71.39
2023-02-28T10:06:06.458Z,72.35
2023-02-28T10:08:42.337Z,70.77
2023-02-28T10:11:13.299Z,70.43
2023-02-28T10:14:15.379Z,68.80
2023-02-28T10:16:52.979Z,69.27
2023-02-28T10:19:47.339Z,64.07
2023-02-28T10:22:25.325Z,60.97
2023-02-28T10:24:57.493Z,60.97
2023-02-28T10:27:29.084Z,59.14
2023-02-28T10:30:02.902Z,57.25
2023-02-28T10:32:37.042Z,57.90
2023-02-28T10:35:25.048Z,57.27
2023-02-28T10:37:57.199Z,57.37
2023-02-28T10:40:24.029Z,55.29
2023-02-28T10:43:06.405Z,54.94
2023-02-28T10:45:38.225Z,54.81
2023-02-28T10:48:27.762Z,51.89
2023-02-28T10:50:58.753Z,51.71
2023-02-28T10:53:25.716Z,51.25
2023-02-28T10:56:04.528Z,50.82
2023-02-28T10:59:04.560Z,51.42
2023-02-28T11:01:31.712Z,52.60
2023-02-28T11:03:59.421Z,52.27
2023-02-28T11:06:35.423Z,52.61
2023-02-28T11:09:21.188Z,52.94
2023-02-28T11:11:49.612Z,52.59
2023-02-28T11:14:26.451Z,50.89
2023-02-28T11:16:55.888Z,52.30
2023-02-28T11:19:38.643Z,51.96
2023-02-28T11:22:06.986Z,51.24
2023-02-28T11:24:44.640Z,50.80
2023-02-28T11:27:32.542Z,52.84
2023-02-28T11:30:01.151Z,51.45
2023-02-28T11:32:31.465Z,49.72
2023-02-28T11:35:20.831Z,49.84
2023-02-28T11:37:47.966Z,49.21
2023-02-28T11:40:23.864Z,48.62
2023-02-28T11:43:39.948Z,47.70
2023-02-28T11:46:28.244Z,48.27
2023-02-28T11:49:21.535Z,47.62
2023-02-28T11:52:14.192Z,48.30
2023-02-28T11:55:35.344Z,48.69
2023-02-28T11:58:31.031Z,49.58
2023-02-28T12:00:57.891Z,48.25
2023-02-28T12:04:04.224Z,47.25
2023-02-28T12:06:46.369Z,47.41
2023-02-28T12:09:30.867Z,48.11
2023-02-28T12:12:36.061Z,47.56
2023-02-28T12:16:23.160Z,45.91
2023-02-28T12:19:17.250Z,46.62
2023-02-28T12:22:28.889Z,45.63
2023-02-28T12:25:07.781Z,44.41
2023-02-28T12:27:40.281Z,44.39
2023-02-28T12:30:24.762Z,44.49
2023-02-28T12:33:03.882Z,42.54
2023-02-28T12:35:56.794Z,41.58
2023-02-28T12:38:56.936Z,44.02
2023-02-28T12:41:55.201Z,44.22
2023-02-28T12:44:32.569Z,46.40
2023-02-28T12:47:06.857Z,46.80
2023-02-28T12:49:42.571Z,46.62
2023-02-28T12:52:13.680Z,45.42
2023-02-28T12:55:02.293Z,44.77
2023-02-28T12:57:59.827Z,44.68
2023-02-28T13:00:35.639Z,42.77
2023-02-28T13:03:31.164Z,45.68
2023-02-28T13:06:44.937Z,46.73
2023-02-28T13:09:17.535Z,47.94
2023-02-28T13:11:53.550Z,45.97
2023-02-28T13:14:35.359Z,45.68
2023-02-28T13:17:08.572Z,46.25
2023-02-28T13:19:39.703Z,45.39
2023-02-28T13:22:17.865Z,45.73
2023-02-28T13:24:55.254Z,45.00
2023-02-28T13:27:41.185Z,44.89
2023-02-28T13:31:00.411Z,44.65
2023-02-28T13:33:45.217Z,45.16
2023-02-28T13:36:26.507Z,45.29
2023-02-28T13:39:09.845Z,46.59
2023-02-28T13:41:44.594Z,45.54
2023-02-28T13:44:27.329Z,44.63
2023-02-28T13:46:56.988Z,44.93
2023-02-28T13:49:23.988Z,45.97
2023-02-28T13:52:20.285Z,46.38
2023-02-28T13:55:17.501Z,45.79
2023-02-28T13:57:56.778Z,46.41
2023-02-28T14:01:15.268Z,45.61
2023-02-28T14:04:28.756Z,45.60
2023-02-28T14:06:57.943Z,46.06
2023-02-28T14:09:40.518Z,45.55
2023-02-28T14:12:59.671Z,43.82
2023-02-28T14:15:44.224Z,47.58
2023-02-28T14:18:33.864Z,47.71
2023-02-28T14:21:28.123Z,46.69
2023-02-28T14:24:23.526Z,46.27
2023-02-28T14:27:17.796Z,44.75
2023-02-28T14:30:07.926Z,43.65
2023-02-28T14:33:15.022Z,43.95
2023-02-28T14:36:18.872Z,46.19
2023-02-28T14:38:56.014Z,45.13
2023-02-28T14:41:25.653Z,45.87
2023-02-28T14:43:59.358Z,45.77
2023-02-28T14:46:38.359Z,45.79
2023-02-28T14:49:08.486Z,46.28
2023-02-28T14:51:36.315Z,46.74
2023-02-28T14:54:05.262Z,45.69
2023-02-28T14:56:39.677Z,46.93
2023-02-28T14:59:30.869Z,45.59
2023-02-28T15:02:24.294Z,46.58
2023-02-28T15:05:01.081Z,46.08
2023-02-28T15:07:32.050Z,47.07
2023-02-28T15:10:29.043Z,47.79
2023-02-28T15:12:59.762Z,48.18
2023-02-28T15:15:46.164Z,48.47
2023-02-28T15:18:33.453Z,46.82
2023-02-28T15:21:07.864Z,46.32
2023-02-28T15:23:37.766Z,45.87
2023-02-28T15:26:05.991Z,46.74
2023-02-28T15:28:33.215Z,47.52
2023-02-28T15:31:23.997Z,47.90
2023-02-28T15:34:00.005Z,49.59
2023-02-28T15:36:38.086Z,48.55
2023-02-28T15:39:23.658Z,48.82
2023-02-28T15:41:51.139Z,48.90
2023-02-28T15:44:30.737Z,50.26
2023-02-28T15:47:18.801Z,49.90
2023-02-28T15:50:00.530Z,49.60
2023-02-28T15:52:44.445Z,48.95
2023-02-28T15:55:23.949Z,49.47
2023-02-28T15:57:55.702Z,48.58
2023-02-28T16:00:27.371Z,48.58
2023-02-28T16:02:54.740Z,49.47
2023-02-28T16:05:34.776Z,50.10
2023-02-28T16:08:15.538Z,50.48
2023-02-28T16:10:42.608Z,50.25
2023-02-28T16:13:16.093Z,50.65
2023-02-28T16:15:44.847Z,49.83
2023-02-28T16:18:13.168Z,50.49
2023-02-28T16:20:40.335Z,50.86
2023-02-28T16:23:07.302Z,50.46
2023-02-28T16:25:41.445Z,50.69
2023-02-28T16:28:25.362Z,50.60
2023-02-28T16:30:53.645Z,49.83
2023-02-28T16:33:20.575Z,50.05
2023-02-28T16:35:47.511Z,50.59
2023-02-28T16:38:14.463Z,50.44
2023-02-28T16:40:41.900Z,51.28
2023-02-28T16:43:16.756Z,50.75
2023-02-28T16:45:43.909Z,50.74
2023-02-28T16:48:17.075Z,52.04
2023-02-28T16:50:47.289Z,52.60
2023-02-28T16:53:14.583Z,52.98
2023-02-28T16:55:41.811Z,53.68
2023-02-28T16:58:18.266Z,54.04
2023-02-28T17:00:45.180Z,53.43
2023-02-28T17:03:32.602Z,53.67
2023-02-28T17:06:00.975Z,54.34
2023-02-28T17:08:29.760Z,54.85
2023-02-28T17:10:57.126Z,55.38
2023-02-28T17:13:24.058Z,54.51
2023-02-28T17:15:51.244Z,56.25
2023-02-28T17:18:20.542Z,55.96
2023-02-28T17:20:48.155Z,56.83
2023-02-28T17:23:15.187Z,57.30
2023-02-28T17:25:42.087Z,57.73
2023-02-28T17:28:10.266Z,58.55
2023-02-28T17:30:37.293Z,57.41
2023-02-28T17:33:04.400Z,57.31
2023-02-28T17:35:31.510Z,58.19
2023-02-28T17:37:58.682Z,58.75
2023-02-28T17:40:26.564Z,59.51
2023-02-28T17:42:53.580Z,59.08
2023-02-28T17:45:20.967Z,58.92
2023-02-28T17:47:50.177Z,59.47
2023-02-28T17:50:21.841Z,59.29
2023-02-28T17:52:51.199Z,60.44
2023-02-28T17:55:19.979Z,60.79
2023-02-28T17:57:48.038Z,60.54
2023-02-28T18:00:18.223Z,60.47
2023-02-28T18:02:45.859Z,60.45
2023-02-28T18:05:12.958Z,61.25
2023-02-28T18:07:40.332Z,60.73
2023-02-28T18:10:16.044Z,61.54
2023-02-28T18:12:43.691Z,62.03
2023-02-28T18:15:11.058Z,61.73
2023-02-28T18:17:37.987Z,62.69
2023-02-28T18:20:05.849Z,62.59
2023-02-28T18:22:33.020Z,62.49
2023-02-28T18:24:59.918Z,62.61
2023-02-28T18:27:26.810Z,63.07
2023-02-28T18:29:54.729Z,63.78
2023-02-28T18:32:21.699Z,63.69
2023-02-28T18:34:48.663Z,63.68
2023-02-28T18:37:18.382Z,64.50
2023-02-28T18:39:45.480Z,64.65
2023-02-28T18:42:12.498Z,64.75
2023-02-28T18:44:39.565Z,64.95
2023-02-28T18:47:06.728Z,64.44
2023-02-28T18:49:35.555Z,64.94
2023-02-28T18:52:03.089Z,65.00
2023-02-28T18:54:30.286Z,65.21
2023-02-28T18:56:57.478Z,69.16
2023-02-28T18:59:24.524Z,65.59
2023-02-28T19:01:51.436Z,65.61
2023-02-28T19:04:18.455Z,64.97
2023-02-28T19:06:45.395Z,65.00
2023-02-28T19:09:12.468Z,65.13
2023-02-28T19:11:39.613Z,65.39
2023-02-28T19:14:07.025Z,65.70
2023-02-28T19:16:34.426Z,66.16
2023-02-28T19:19:01.423Z,66.21
2023-02-28T19:21:28.305Z,66.06
2023-02-28T19:23:55.201Z,66.94
2023-02-28T19:26:24.810Z,67.03
2023-02-28T19:28:51.798Z,67.25
2023-02-28T19:31:22.581Z,66.51
2023-02-28T19:33:52.786Z,66.68
2023-02-28T19:36:21.108Z,67.18
2023-02-28T19:38:48.664Z,67.53
2023-02-28T19:41:17.289Z,68.14
2023-02-28T19:43:44.572Z,69.23
2023-02-28T19:46:12.762Z,69.26
2023-02-28T19:48:42.293Z,70.20
2023-02-28T19:51:12.469Z,70.83
2023-02-28T19:53:41.324Z,71.11
2023-02-28T19:56:09.803Z,71.44
2023-02-28T19:58:37.557Z,72.21
2023-02-28T20:01:18.061Z,72.25
2023-02-28T20:03:49.695Z,72.92
2023-02-28T20:06:17.267Z,71.93
2023-02-28T20:08:44.280Z,71.03
2023-02-28T20:11:15.583Z,72.06
2023-02-28T20:13:42.935Z,71.54
2023-02-28T20:16:12.437Z,78.26
2023-02-28T20:18:40.564Z,77.45
2023-02-28T20:21:12.843Z,71.91
2023-02-28T20:23:41.695Z,70.50
2023-02-28T20:26:09.911Z,70.37
2023-02-28T20:28:38.415Z,71.66
2023-02-28T20:31:24.606Z,72.22
2023-02-28T20:33:52.798Z,72.86
2023-02-28T20:36:21.249Z,72.83
2023-02-28T20:38:48.457Z,73.19
2023-02-28T20:41:15.729Z,73.00
2023-02-28T20:43:42.958Z,73.36
2023-02-28T20:46:10.604Z,73.03
2023-02-28T20:52:19.234Z,73.57
2023-02-28T20:54:46.696Z,73.50
2023-02-28T20:57:13.712Z,74.78
2023-02-28T20:59:41.905Z,75.03
2023-02-28T21:02:11.801Z,74.83
2023-02-28T21:04:38.848Z,74.53
2023-02-28T21:07:05.830Z,74.25
2023-02-28T21:09:32.738Z,74.41
2023-02-28T21:11:59.689Z,74.66
2023-02-28T21:14:27.365Z,75.42
2023-02-28T21:16:54.279Z,75.25
2023-02-28T21:19:21.746Z,76.76
2023-02-28T21:21:48.746Z,76.01
2023-02-28T21:24:19.235Z,76.21
2023-02-28T21:26:47.272Z,75.78
2023-02-28T21:29:14.937Z,75.32
2023-02-28T21:31:42.179Z,75.90
2023-02-28T21:34:12.617Z,75.71
2023-02-28T21:36:45.477Z,75.66
2023-02-28T21:39:21.827Z,75.88
2023-02-28T21:41:49.027Z,76.14
2023-02-28T21:44:19.089Z,76.86
2023-02-28T21:46:49.005Z,76.91
2023-02-28T21:49:16.328Z,76.88
2023-02-28T21:51:43.743Z,77.37
2023-02-28T21:54:11.130Z,78.78
2023-02-28T21:56:38.602Z,77.14
2023-02-28T21:59:07.172Z,77.37
2023-02-28T22:01:44.098Z,77.38
2023-02-28T22:04:23.498Z,77.82
2023-02-28T22:06:54.308Z,77.16
2023-02-28T22:09:22.172Z,77.11
2023-02-28T22:11:50.278Z,77.15
2023-02-28T22:14:17.774Z,77.64
2023-02-28T22:16:51.961Z,77.31
2023-02-28T22:19:21.157Z,78.06
2023-02-28T22:21:48.210Z,77.27
2023-02-28T22:24:17.489Z,78.69
2023-02-28T22:26:44.722Z,78.83
2023-02-28T22:29:11.662Z,78.30
2023-02-28T22:31:38.648Z,78.99
2023-02-28T22:34:09.392Z,81.22
2023-02-28T22:36:37.085Z,81.52
2023-02-28T22:39:05.389Z,80.67
2023-02-28T22:41:33.357Z,80.73
2023-02-28T22:44:03.562Z,80.49
2023-02-28T22:46:33.713Z,81.56
2023-02-28T22:49:04.643Z,81.46
2023-02-28T22:51:31.537Z,80.58
2023-02-28T22:53:59.022Z,81.09
2023-02-28T22:56:29.077Z,81.47
2023-02-28T22:58:59.083Z,81.70
2023-02-28T23:01:30.032Z,83.04
2023-02-28T23:03:57.786Z,83.39
2023-02-28T23:06:43.579Z,84.85
2023-02-28T23:09:18.288Z,84.12
2023-02-28T23:11:48.262Z,83.42
2023-02-28T23:14:21.401Z,83.50
2023-02-28T23:16:54.411Z,84.83
2023-02-28T23:19:26.853Z,86.34
2023-02-28T23:21:54.683Z,88.04
2023-02-28T23:24:24.335Z,88.28
2023-02-28T23:26:54.428Z,88.50
2023-02-28T23:29:23.204Z,88.24
2023-02-28T23:31:50.385Z,88.13
2023-02-28T23:34:24.852Z,89.76
2023-02-28T23:36:53.024Z,90.50
2023-02-28T23:39:21.168Z,92.85
2023-02-28T23:41:48.423Z,94.55
2023-02-28T23:44:16.916Z,93.89
2023-02-28T23:46:50.898Z,92.52
2023-02-28T23:49:20.045Z,91.35
2023-02-28T23:51:51.770Z,90.94
2023-02-28T23:54:19.490Z,88.91
2023-02-28T23:56:46.664Z,89.74
2023-02-28T23:59:14.233Z,90.68
